ASL32A LYBE-LYTV
Flight info
| Callsign | ASL32A |
|---|---|
| Flight time | 0h 39m |
| Altitude | 28000 |
| Route | VAL DCT MOJ N732 POD |
| Aircraft | E195/M-SDE3GILORVW/S |
Departure
| Time | 2026-05-05 15:05 |
|---|---|
| Airport | Belgrade Nikola Tesla Airport (LYBE) |
Arrival
| Time | 2026-05-05 15:44 |
|---|---|
| Airport | Tivat Airport (LYTV) |
| Time | Latitude | Longitude | Altitude | Speed | Heading |
|---|---|---|---|---|---|
| 2026-05-05 14:42 | 44.82170 | 20.29113 | 339 ft | 0 kts | 212° |
| 2026-05-05 14:58 | 44.82182 | 20.29124 | 339 ft | 2 kts | 212° |
| 2026-05-05 14:58 | 44.82194 | 20.29135 | 339 ft | 2 kts | 212° |
| 2026-05-05 14:59 | 44.82207 | 20.29146 | 339 ft | 2 kts | 218° |
| 2026-05-05 14:59 | 44.82214 | 20.29164 | 339 ft | 2 kts | 268° |
| 2026-05-05 14:59 | 44.82211 | 20.29180 | 339 ft | 1 kts | 302° |
| 2026-05-05 14:59 | 44.82210 | 20.29184 | 339 ft | 0 kts | 302° |
| 2026-05-05 15:01 | 44.82211 | 20.29182 | 339 ft | 0 kts | 302° |
| 2026-05-05 15:01 | 44.82215 | 20.29172 | 339 ft | 1 kts | 302° |
| 2026-05-05 15:01 | 44.82223 | 20.29154 | 339 ft | 2 kts | 302° |
| 2026-05-05 15:01 | 44.82236 | 20.29130 | 339 ft | 2 kts | 325° |
| 2026-05-05 15:02 | 44.82258 | 20.29127 | 339 ft | 3 kts | 9° |
| 2026-05-05 15:02 | 44.82287 | 20.29135 | 339 ft | 4 kts | 7° |
| 2026-05-05 15:02 | 44.82320 | 20.29119 | 339 ft | 7 kts | 314° |
| 2026-05-05 15:02 | 44.82361 | 20.29034 | 338 ft | 14 kts | 301° |
| 2026-05-05 15:03 | 44.82427 | 20.28893 | 338 ft | 19 kts | 317° |
| 2026-05-05 15:03 | 44.82548 | 20.28895 | 338 ft | 18 kts | 42° |
| 2026-05-05 15:03 | 44.82614 | 20.29049 | 339 ft | 19 kts | 79° |
| 2026-05-05 15:03 | 44.82616 | 20.29177 | 339 ft | 7 kts | 117° |
| 2026-05-05 15:04 | 44.82615 | 20.29180 | 339 ft | 0 kts | 118° |
| 2026-05-05 15:04 | 44.82613 | 20.29185 | 339 ft | 1 kts | 118° |
| 2026-05-05 15:04 | 44.82602 | 20.29211 | 339 ft | 10 kts | 120° |
| 2026-05-05 15:04 | 44.82410 | 20.29647 | 339 ft | 94 kts | 121° |
| 2026-05-05 15:05 | 44.81280 | 20.32208 | 895 ft | 181 kts | 122° |
| 2026-05-05 15:05 | 44.80353 | 20.33263 | 1775 ft | 179 kts | 160° |
| 2026-05-05 15:05 | 44.78994 | 20.33578 | 1966 ft | 217 kts | 173° |
| 2026-05-05 15:06 | 44.77400 | 20.33813 | 2487 ft | 240 kts | 173° |
| 2026-05-05 15:06 | 44.75767 | 20.34081 | 3536 ft | 237 kts | 173° |
| 2026-05-05 15:06 | 44.74083 | 20.34373 | 4256 ft | 250 kts | 173° |
| 2026-05-05 15:06 | 44.72314 | 20.34689 | 4949 ft | 263 kts | 173° |
| 2026-05-05 15:07 | 44.70495 | 20.35018 | 5728 ft | 266 kts | 173° |
| 2026-05-05 15:07 | 44.68626 | 20.35360 | 5934 ft | 271 kts | 173° |
| 2026-05-05 15:07 | 44.66755 | 20.35702 | 5967 ft | 272 kts | 173° |
| 2026-05-05 15:07 | 44.64883 | 20.36045 | 5973 ft | 271 kts | 173° |
| 2026-05-05 15:08 | 44.63054 | 20.36381 | 5955 ft | 254 kts | 173° |
| 2026-05-05 15:08 | 44.61334 | 20.36696 | 5952 ft | 245 kts | 173° |
| 2026-05-05 15:08 | 44.59633 | 20.37007 | 5967 ft | 246 kts | 173° |
| 2026-05-05 15:08 | 44.57936 | 20.37318 | 5969 ft | 247 kts | 173° |
| 2026-05-05 15:09 | 44.56204 | 20.37634 | 5969 ft | 249 kts | 173° |
| 2026-05-05 15:09 | 44.54488 | 20.37948 | 5971 ft | 249 kts | 173° |
| 2026-05-05 15:09 | 44.52752 | 20.38265 | 5967 ft | 249 kts | 173° |
| 2026-05-05 15:09 | 44.51051 | 20.38154 | 5966 ft | 249 kts | 202° |
| 2026-05-05 15:10 | 44.49722 | 20.36631 | 6107 ft | 259 kts | 238° |
| 2026-05-05 15:10 | 44.48838 | 20.34330 | 6528 ft | 276 kts | 242° |
| 2026-05-05 15:10 | 44.47974 | 20.31926 | 7266 ft | 281 kts | 243° |
| 2026-05-05 15:10 | 44.47120 | 20.29507 | 8144 ft | 280 kts | 243° |
| 2026-05-05 15:11 | 44.46269 | 20.27077 | 9027 ft | 280 kts | 243° |
| 2026-05-05 15:11 | 44.45418 | 20.24641 | 9874 ft | 281 kts | 243° |
| 2026-05-05 15:11 | 44.44551 | 20.22156 | 10641 ft | 286 kts | 243° |
| 2026-05-05 15:11 | 44.43678 | 20.19654 | 11373 ft | 292 kts | 243° |
| 2026-05-05 15:12 | 44.42778 | 20.17075 | 12170 ft | 296 kts | 243° |
| 2026-05-05 15:12 | 44.41875 | 20.14489 | 12955 ft | 301 kts | 243° |
| 2026-05-05 15:12 | 44.40950 | 20.11844 | 13725 ft | 307 kts | 243° |
| 2026-05-05 15:12 | 44.40009 | 20.09156 | 14547 ft | 310 kts | 242° |
| 2026-05-05 15:13 | 44.39063 | 20.06455 | 15398 ft | 312 kts | 243° |
| 2026-05-05 15:13 | 44.38112 | 20.03744 | 16233 ft | 314 kts | 243° |
| 2026-05-05 15:13 | 44.37146 | 20.00993 | 16880 ft | 322 kts | 243° |
| 2026-05-05 15:13 | 44.36131 | 19.98105 | 17284 ft | 338 kts | 243° |
| 2026-05-05 15:14 | 44.35083 | 19.95123 | 17827 ft | 348 kts | 244° |
| 2026-05-05 15:14 | 44.34014 | 19.92091 | 18517 ft | 353 kts | 244° |
| 2026-05-05 15:14 | 44.32712 | 19.89190 | 19254 ft | 355 kts | 226° |
| 2026-05-05 15:14 | 44.30618 | 19.87280 | 19980 ft | 360 kts | 200° |
| 2026-05-05 15:15 | 44.28168 | 19.86544 | 20635 ft | 365 kts | 191° |
| 2026-05-05 15:15 | 44.25651 | 19.85981 | 21242 ft | 370 kts | 191° |
| 2026-05-05 15:15 | 44.23100 | 19.85414 | 21817 ft | 375 kts | 191° |
| 2026-05-05 15:15 | 44.20489 | 19.84835 | 22385 ft | 381 kts | 191° |
| 2026-05-05 15:16 | 44.17841 | 19.84249 | 22944 ft | 385 kts | 191° |
| 2026-05-05 15:16 | 44.15162 | 19.83658 | 23498 ft | 390 kts | 192° |
| 2026-05-05 15:16 | 44.12495 | 19.83070 | 24086 ft | 394 kts | 192° |
| 2026-05-05 15:16 | 44.09764 | 19.82468 | 24708 ft | 397 kts | 192° |
| 2026-05-05 15:17 | 44.07044 | 19.81869 | 25327 ft | 398 kts | 192° |
| 2026-05-05 15:17 | 44.04288 | 19.81262 | 25931 ft | 400 kts | 192° |
| 2026-05-05 15:17 | 44.01564 | 19.80664 | 26485 ft | 403 kts | 192° |
| 2026-05-05 15:17 | 43.98761 | 19.80048 | 26897 ft | 404 kts | 193° |
| 2026-05-05 15:18 | 43.96022 | 19.79447 | 26776 ft | 402 kts | 192° |
| 2026-05-05 15:18 | 43.93209 | 19.78830 | 26828 ft | 410 kts | 193° |
| 2026-05-05 15:18 | 43.90395 | 19.78214 | 27227 ft | 416 kts | 193° |
| 2026-05-05 15:18 | 43.87534 | 19.77587 | 27379 ft | 428 kts | 193° |
| 2026-05-05 15:19 | 43.84539 | 19.76934 | 27391 ft | 429 kts | 193° |
| 2026-05-05 15:19 | 43.81632 | 19.76302 | 27344 ft | 408 kts | 193° |
| 2026-05-05 15:19 | 43.78874 | 19.75700 | 27298 ft | 400 kts | 193° |
| 2026-05-05 15:19 | 43.76121 | 19.75098 | 27261 ft | 404 kts | 193° |
| 2026-05-05 15:20 | 43.73293 | 19.74482 | 27234 ft | 409 kts | 193° |
| 2026-05-05 15:20 | 43.70488 | 19.73872 | 27206 ft | 410 kts | 193° |
| 2026-05-05 15:20 | 43.67679 | 19.73262 | 27190 ft | 409 kts | 193° |
| 2026-05-05 15:20 | 43.64865 | 19.72651 | 27177 ft | 408 kts | 193° |
| 2026-05-05 15:21 | 43.62060 | 19.72043 | 27165 ft | 408 kts | 193° |
| 2026-05-05 15:21 | 43.59255 | 19.71435 | 27164 ft | 408 kts | 193° |
| 2026-05-05 15:21 | 43.56431 | 19.70824 | 27170 ft | 407 kts | 193° |
| 2026-05-05 15:21 | 43.53625 | 19.70217 | 27170 ft | 408 kts | 193° |
| 2026-05-05 15:22 | 43.50806 | 19.69608 | 27168 ft | 409 kts | 193° |
| 2026-05-05 15:22 | 43.48013 | 19.69005 | 27165 ft | 408 kts | 192° |
| 2026-05-05 15:22 | 43.45172 | 19.68393 | 27163 ft | 409 kts | 193° |
| 2026-05-05 15:22 | 43.42375 | 19.67790 | 27161 ft | 408 kts | 193° |
| 2026-05-05 15:23 | 43.39547 | 19.67182 | 27158 ft | 408 kts | 192° |
| 2026-05-05 15:23 | 43.36769 | 19.66584 | 27109 ft | 408 kts | 192° |
| 2026-05-05 15:23 | 43.33956 | 19.65980 | 27093 ft | 407 kts | 192° |
| 2026-05-05 15:23 | 43.31158 | 19.65379 | 27007 ft | 410 kts | 193° |
| 2026-05-05 15:24 | 43.28346 | 19.64776 | 26562 ft | 409 kts | 192° |
| 2026-05-05 15:24 | 43.25510 | 19.64169 | 26123 ft | 405 kts | 192° |
| 2026-05-05 15:24 | 43.22729 | 19.63574 | 25684 ft | 401 kts | 192° |
| 2026-05-05 15:24 | 43.19992 | 19.62988 | 25245 ft | 399 kts | 192° |
| 2026-05-05 15:25 | 43.17256 | 19.62404 | 24796 ft | 398 kts | 192° |
| 2026-05-05 15:25 | 43.14516 | 19.61819 | 24364 ft | 396 kts | 192° |
| 2026-05-05 15:25 | 43.11796 | 19.61238 | 23926 ft | 396 kts | 192° |
| 2026-05-05 15:25 | 43.09088 | 19.60662 | 23484 ft | 392 kts | 192° |
| 2026-05-05 15:26 | 43.06397 | 19.60090 | 23058 ft | 388 kts | 192° |
| 2026-05-05 15:26 | 43.03725 | 19.59521 | 22631 ft | 385 kts | 192° |
| 2026-05-05 15:26 | 43.01099 | 19.58963 | 22208 ft | 382 kts | 192° |
| 2026-05-05 15:26 | 42.98483 | 19.58407 | 21788 ft | 378 kts | 192° |
| 2026-05-05 15:27 | 42.95876 | 19.57854 | 21376 ft | 375 kts | 192° |
| 2026-05-05 15:27 | 42.93395 | 19.56912 | 20974 ft | 367 kts | 205° |
| 2026-05-05 15:27 | 42.91063 | 19.55572 | 20567 ft | 365 kts | 206° |
| 2026-05-05 15:27 | 42.88757 | 19.54236 | 20170 ft | 361 kts | 206° |
| 2026-05-05 15:28 | 42.86456 | 19.52901 | 19776 ft | 358 kts | 206° |
| 2026-05-05 15:28 | 42.84162 | 19.51570 | 19380 ft | 354 kts | 206° |
| 2026-05-05 15:28 | 42.81892 | 19.50254 | 18987 ft | 352 kts | 206° |
| 2026-05-05 15:28 | 42.79676 | 19.48969 | 18606 ft | 351 kts | 206° |
| 2026-05-05 15:29 | 42.77414 | 19.47658 | 18229 ft | 361 kts | 206° |
| 2026-05-05 15:29 | 42.75025 | 19.46274 | 17834 ft | 382 kts | 206° |
| 2026-05-05 15:29 | 42.72563 | 19.44852 | 17394 ft | 384 kts | 205° |
| 2026-05-05 15:29 | 42.70101 | 19.43431 | 16957 ft | 380 kts | 205° |
| 2026-05-05 15:30 | 42.67681 | 19.42035 | 16541 ft | 377 kts | 205° |
| 2026-05-05 15:30 | 42.65296 | 19.40659 | 16119 ft | 374 kts | 205° |
| 2026-05-05 15:30 | 42.62897 | 19.39278 | 15711 ft | 371 kts | 204° |
| 2026-05-05 15:30 | 42.60531 | 19.37918 | 15304 ft | 368 kts | 204° |
| 2026-05-05 15:31 | 42.58163 | 19.36559 | 14890 ft | 366 kts | 204° |
| 2026-05-05 15:31 | 42.55810 | 19.35209 | 14500 ft | 366 kts | 204° |
| 2026-05-05 15:31 | 42.53493 | 19.33881 | 14097 ft | 363 kts | 203° |
| 2026-05-05 15:31 | 42.51172 | 19.32552 | 13675 ft | 360 kts | 202° |
| 2026-05-05 15:32 | 42.48854 | 19.31226 | 13275 ft | 358 kts | 202° |
| 2026-05-05 15:32 | 42.46570 | 19.29920 | 12879 ft | 356 kts | 202° |
| 2026-05-05 15:32 | 42.44292 | 19.28618 | 12492 ft | 353 kts | 202° |
| 2026-05-05 15:32 | 42.42072 | 19.27351 | 12055 ft | 337 kts | 202° |
| 2026-05-05 15:33 | 42.39959 | 19.26145 | 11718 ft | 325 kts | 202° |
| 2026-05-05 15:33 | 42.37904 | 19.24974 | 11341 ft | 315 kts | 202° |
| 2026-05-05 15:33 | 42.35922 | 19.23845 | 10991 ft | 307 kts | 203° |
| 2026-05-05 15:33 | 42.33962 | 19.22730 | 10652 ft | 298 kts | 202° |
| 2026-05-05 15:34 | 42.32102 | 19.21672 | 10324 ft | 290 kts | 203° |
| 2026-05-05 15:34 | 42.30285 | 19.20563 | 10045 ft | 281 kts | 214° |
| 2026-05-05 15:34 | 42.28993 | 19.18616 | 9896 ft | 279 kts | 240° |
| 2026-05-05 15:34 | 42.28030 | 19.16354 | 9613 ft | 281 kts | 237° |
| 2026-05-05 15:35 | 42.26946 | 19.14119 | 9277 ft | 281 kts | 235° |
| 2026-05-05 15:35 | 42.25841 | 19.11979 | 8971 ft | 279 kts | 234° |
| 2026-05-05 15:35 | 42.24709 | 19.09847 | 8663 ft | 277 kts | 233° |
| 2026-05-05 15:35 | 42.23576 | 19.07744 | 8362 ft | 275 kts | 233° |
| 2026-05-05 15:36 | 42.22451 | 19.05669 | 8053 ft | 275 kts | 233° |
| 2026-05-05 15:36 | 42.21321 | 19.03591 | 7765 ft | 273 kts | 233° |
| 2026-05-05 15:36 | 42.20165 | 19.01585 | 7442 ft | 272 kts | 225° |
| 2026-05-05 15:36 | 42.18837 | 18.99843 | 7122 ft | 262 kts | 224° |
| 2026-05-05 15:37 | 42.17559 | 18.98196 | 6848 ft | 244 kts | 224° |
| 2026-05-05 15:37 | 42.16377 | 18.96673 | 6586 ft | 228 kts | 224° |
| 2026-05-05 15:37 | 42.15351 | 18.95129 | 6434 ft | 217 kts | 244° |
| 2026-05-05 15:37 | 42.15171 | 18.93150 | 6179 ft | 213 kts | 276° |
| 2026-05-05 15:38 | 42.15421 | 18.91189 | 5909 ft | 213 kts | 278° |
| 2026-05-05 15:38 | 42.15691 | 18.89239 | 5650 ft | 216 kts | 279° |
| 2026-05-05 15:38 | 42.16039 | 18.87250 | 5400 ft | 224 kts | 294° |
| 2026-05-05 15:38 | 42.17141 | 18.85764 | 5134 ft | 231 kts | 333° |
| 2026-05-05 15:39 | 42.18651 | 18.84957 | 4807 ft | 233 kts | 338° |
| 2026-05-05 15:39 | 42.20162 | 18.84183 | 4464 ft | 230 kts | 338° |
| 2026-05-05 15:39 | 42.21655 | 18.83417 | 4145 ft | 227 kts | 338° |
| 2026-05-05 15:39 | 42.23114 | 18.82666 | 3768 ft | 221 kts | 338° |
| 2026-05-05 15:40 | 42.24520 | 18.81942 | 3473 ft | 208 kts | 338° |
| 2026-05-05 15:40 | 42.25831 | 18.81266 | 3201 ft | 198 kts | 338° |
| 2026-05-05 15:40 | 42.27091 | 18.80615 | 2981 ft | 189 kts | 338° |
| 2026-05-05 15:40 | 42.28292 | 18.79995 | 2747 ft | 185 kts | 338° |
| 2026-05-05 15:41 | 42.29458 | 18.79392 | 2491 ft | 171 kts | 339° |
| 2026-05-05 15:41 | 42.30522 | 18.78842 | 2255 ft | 160 kts | 339° |
| 2026-05-05 15:41 | 42.31555 | 18.78308 | 2005 ft | 156 kts | 339° |
| 2026-05-05 15:41 | 42.32563 | 18.77786 | 1771 ft | 149 kts | 339° |
| 2026-05-05 15:42 | 42.33477 | 18.77313 | 1551 ft | 137 kts | 339° |
| 2026-05-05 15:42 | 42.34352 | 18.76860 | 1367 ft | 134 kts | 340° |
| 2026-05-05 15:42 | 42.35236 | 18.76403 | 1170 ft | 136 kts | 339° |
| 2026-05-05 15:42 | 42.36123 | 18.75943 | 961 ft | 136 kts | 340° |
| 2026-05-05 15:43 | 42.36999 | 18.75480 | 726 ft | 135 kts | 338° |
| 2026-05-05 15:43 | 42.37862 | 18.74986 | 475 ft | 133 kts | 335° |
| 2026-05-05 15:43 | 42.38656 | 18.74405 | 310 ft | 129 kts | 326° |
| 2026-05-05 15:43 | 42.39357 | 18.73634 | 136 ft | 130 kts | 318° |
| 2026-05-05 15:44 | 42.40026 | 18.72846 | 36 ft | 115 kts | 319° |
| 2026-05-05 15:44 | 42.40503 | 18.72288 | 36 ft | 68 kts | 319° |
| 2026-05-05 15:44 | 42.40773 | 18.71965 | 37 ft | 38 kts | 320° |
| 2026-05-05 15:44 | 42.40895 | 18.71823 | 37 ft | 11 kts | 319° |
| 2026-05-05 15:45 | 42.40970 | 18.71820 | 37 ft | 11 kts | 36° |
| 2026-05-05 15:45 | 42.41033 | 18.71846 | 37 ft | 7 kts | 322° |
| 2026-05-05 15:45 | 42.41074 | 18.71801 | 37 ft | 8 kts | 319° |
| 2026-05-05 15:45 | 42.41119 | 18.71746 | 37 ft | 9 kts | 316° |
| 2026-05-05 15:46 | 42.41153 | 18.71707 | 37 ft | 3 kts | 342° |
| 2026-05-05 15:46 | 42.41159 | 18.71706 | 37 ft | 1 kts | 0° |
| 2026-05-05 15:46 | 42.41179 | 18.71727 | 37 ft | 4 kts | 76° |
| 2026-05-05 15:46 | 42.41167 | 18.71745 | 37 ft | 0 kts | 166° |
| 2026-05-05 15:47 | 42.41164 | 18.71746 | 37 ft | 0 kts | 166° |